National Weather Service United States Department of Commerce

Severe Thunderstorms Expected for Portions of the Northeast; Mountain Snow and Heavy Rain Persist in the West

Severe thunderstorms will continue to develop across the Upper Ohio Valley region into portions of the interior Northeast through this evening. Damaging winds are the main threat however, large hail and a couple of tornadoes are also possible. A Pacific storm in the West continues to persist producing mountain snow and moderate to locally heavy coastal/valley rain. Read More >

FAA logo - Click to go to the FAA homepage

NY TRACON Strategic Planning Aid (SPA)

For ATC Planning Purposes Only - Page refreshes every 5 minutes - See AviationWeather.gov if data is not current
NWS logo - Click to go to the NWS homepage

***DATA BEST VIEWED IN CHROME BROWSER*** 

Pre-Duty Weather Briefing


YELLOW TABS indicate TAF updated within last 30 minutes. RED TABS indicate TAF updated within last 5 minutes.

  • TAF Board
  • Discussion
  • Current Conditions
  • Snow/Ice

IMPORTANT: ITWS wind directions are magnetic. METAR/TAF winds are true. Add 13 degrees to METAR/TAF wind to get the magnetic direction.

Latest METAR:
METAR KJFK 150551Z 25011KT 10SM SCT095 BKN250 15/12 A2976 RMK AO2 SLP076
     60001 T01500117 10167 20122 53012
Latest TAF:

Older TAFs
TAF Impact Board
ITWS Winds (GRAPH)
5-min ASOS Data
Hourly Temperature Forecast
General Public Forecast

IMPORTANT: ITWS wind directions are magnetic. METAR/TAF winds are true. Add 13 degrees to METAR/TAF wind to get the magnetic direction.

Latest METAR:
METAR KLGA 150551Z 23009KT 10SM OVC110 17/11 A2974 RMK AO2 SLP070 60006
     T01670106 10183 20144 53011 $
Latest TAF:

Older TAFs
TAF Impact Board
ITWS Winds (GRAPH)
5-min ASOS Data
Hourly Temperature Forecast
General Public Forecast

IMPORTANT: ITWS wind directions are magnetic. METAR/TAF winds are true. Add 13 degrees to METAR/TAF wind to get the magnetic direction.

Latest METAR:
METAR KEWR 150551Z 25005KT 10SM BKN095 BKN250 17/13 A2974 RMK AO2 SLP072
     60004 T01670128 10233 20156 51012 $
Latest TAF:

Older TAFs
TAF Impact Board
ITWS Winds (GRAPH)
5-min ASOS Data
Hourly Temperature Forecast
General Public Forecast

IMPORTANT: ITWS wind directions are magnetic. METAR/TAF winds are true. Add 13 degrees to METAR/TAF wind to get the magnetic direction.

Latest METAR:
METAR KTEB 150551Z 23007KT 10SM BKN100 OVC110 15/12 A2973 RMK AO2 SLP068
     60003 T01500122 10217 20150 53007 $
Latest TAF:

Older TAFs
TAF Impact Board
5-min ASOS Data
Hourly Temperature Forecast
General Public Forecast

IMPORTANT: ITWS wind directions are magnetic. METAR/TAF winds are true. Add 13 degrees to METAR/TAF wind to get the magnetic direction.

Latest METAR:
METAR KHPN 150556Z 31003KT 10SM FEW050 13/09 A2972 RMK AO2 SLP063 60002
     T01330094 10178 20133 50009
Latest TAF:

Older TAFs
TAF Impact Board
5-min ASOS Data
Hourly Temperature Forecast
General Public Forecast

IMPORTANT: ITWS wind directions are magnetic. METAR/TAF winds are true. Add 13 degrees to METAR/TAF wind to get the magnetic direction.

Latest METAR:
METAR KISP 150556Z AUTO 27007KT 10SM SCT110 15/11 A2973 RMK AO2 SLP066
     60000 T01500111 10161 20122 53004
Latest TAF:

Older TAFs
TAF Impact Board
5-min ASOS Data
Hourly Temperature Forecast
General Public Forecast

 

Forecast Discussion Prepared at 
 
5-Day Outlook
 

 

Click on Radar and Satellite images below for a loop.

Radar Loop

Radar Loop

Current Weather Map

Flight Category

Visible Satellite Loop

Visible Satellite

Infrared Satellite Loop

IR Satellite

Expected Snowfall

Expected Snowfall

Expected Ice Accumulation

Expected Ice Accumulation

Click here for detailed Snow/Ice Info

PIREPs     SIGMETs     AIRMETs     ZNY CWA/MIS     ZBW CWA/MIS

Click on images below to enlarge.

Morning SWAP Statement

(Updated daily April 1 - September 30)

N90 Thunderstorm Gate Forecast

Radar Loop

Radar Loop

Convective SIGMETs

Convective SIGMETs

TFM Convective Forecast (TCF)

4-hr TCF

Day 1 SWAP Forecast

Day 1 SWAP Forecast

Day 2 SWAP Outlook

Day 2 SWAP Outlook

Day 3 SWAP Outlook

Day 3 SWAP Outlook

SPC Day 1 Convective Outlook

SPC Day 1 Convective Outlook

International Departure Gate Forecast

International Departure Gate Forecast

Domestic Arrival/Departure Fix Forecast

Domestic Arrival/Departure Fix Forecast

N90 Icing TDA

N90 Icing TDA

Current Icing SIGMETs

Icing SIGMETs

Recent Icing PIREPs

Icing PIREPs

00-03 hr Icing AIRMETs

0-3 hr Icing AIRMETs

03-06 hr Icing AIRMETs

3-6 hr Icing AIRMETs

06-09 hr Icing AIRMETs

6-9 hr Icing AIRMETs

 

CIP/FIP Icing Guidance

CIP/FIP Icing Guidance

 

Current Turb SIGMETs

Turb SIGMETs

Recent Turb/LLWS PIREPs

Turb/LLWS PIREPs

Turbulence Guidance (GTG)

GTG

00-03 hr Turb/LLWS AIRMETs

0-3 hr Turb/LLWS AIRMETs

03-06 hr Turb/LLWS AIRMETs

3-6 hr Turb/LLWS AIRMETs

06-09 hr Turb/LLWS AIRMETs

6-9 hr Turb/LLWS AIRMETs

N90 Compression Outlook

N90 Compression Outlook

N90 Compression TDA

N90 Compression TDA